Headquarters, Valles Caldera, New Mexico Weather observations

Data are for 10 minute period ending at time listed.
 Day   Time   Solar   Ave.   Ave.  Ave.  Vector  Max.   Baro.   Total    
  of    of     Rad.   Air    Rel.  Wind   Wind   Wind  Press.  Precip.   
Year   Day            Temp.  Hum.  Speed  Dir.   Gust                    
2016   (MST)  Kw/m2    F      %     mph   deg.    mph    mb.     in.     
-------------------------------------------------------------------------
 339   13:20   0.45   42.1    33    6.8   205     9.6   737.0    0.00 
 339   13:30   0.43   41.9    35    7.8   212    10.2   736.9    0.00 
 339   13:40   0.42   41.8    35    7.3   208     9.6   736.8    0.00 
 339   13:50   0.41   41.4    36    7.7   205    11.3   736.8    0.00 
 339   14:00   0.39   41.0    37    8.7   204    11.9   736.6    0.00 
 339   14:10   0.38   40.9    37    7.8   205    11.3   736.6    0.00 
 339   14:20   0.36   40.6    36    8.6   207    11.3   736.6    0.00 
 339   14:30   0.34   40.5    36    8.7   203    11.3   736.5    0.00 
 339   14:40   0.31   40.3    36    8.7   202    11.9   736.6    0.00 
 339   14:50   0.29   40.1    36    8.3   204    11.9   736.5    0.00 
 339   15:00   0.27   39.9    38    8.6   207    10.8   736.5    0.00 
 339   15:10   0.24   39.6    38    8.3   209    11.3   736.5    0.00 
 339   15:20   0.22   39.4    39    7.7   207    10.2   736.5    0.00 
 339   15:30   0.20   38.8    40    7.1   210     9.0   736.5    0.00 
 339   15:40   0.17   38.2    41    6.6   212     8.4   736.5    0.00 
 339   15:50   0.15   37.7    42    7.5   212     9.6   736.5    0.00 
 339   16:00   0.12   37.4    40    7.5   218    10.2   736.5    0.00 
 339   16:10   0.03   36.1    42    6.9   216    10.8   736.4    0.00 
 339   16:20   0.01   33.8    47    6.3   226     9.6   736.5    0.00 
 339   16:30   0.01   31.6    52    5.4   241     8.4   736.6    0.00 
 339   16:40   0.01   31.4    52    5.0   250     7.2   736.6    0.00 
 339   16:50   0.01   29.8    54    4.5   286     7.2   736.7    0.00 
 339   17:00   0.00   28.4    57    4.6   284     5.4   736.8    0.00 
 339   17:10   0.00   27.4    60    4.8   286     6.0   736.8    0.00 
 339   17:20   0.00   26.4    62    4.4   280     6.6   736.8    0.00 
 339   17:30   0.00   25.8    61    3.5   273     4.8   736.9    0.00 
 339   17:40   0.00   25.8    60    4.0   285     5.4   736.9    0.00 
 339   17:50   0.00   25.4    61    3.2   268     4.2   736.9    0.00 
 339   18:00   0.00   24.8    62    3.7   276     6.0   736.9    0.00 
 339   18:10   0.00   24.5    62    3.5   269     4.8   736.9    0.00 
 339   18:20   0.00   24.1    63    3.5   264     4.8   737.0    0.00 
 339   18:30   0.00   24.4    60    2.8   274     4.2   737.0    0.00 
 339   18:40   0.00   24.4    58    3.5   278     4.8   737.1    0.00 
 339   18:50   0.00   24.3    57    2.6   281     4.2   737.1    0.00 
 339   19:00   0.00   24.4    58    2.2   288     4.2   737.1    0.00 
 339   19:10   0.00   24.6    59    2.1   290     3.6   737.0    0.00 
 339   19:20   0.00   24.5    60    1.5   268     3.0   737.1    0.00 
 339   19:30   0.00   24.1    62    2.0   303     4.2   737.1    0.00 
 339   19:40   0.00   24.0    62    2.3   306     4.8   737.0    0.00 
 339   19:50   0.00   23.4    64    2.2   264     3.6   737.1    0.00 
 339   20:00   0.00   22.3    66    4.7   234     6.6   737.2    0.00 
 339   20:10   0.00   22.2    67    3.9   285     6.6   737.1    0.00 
 339   20:20   0.00   22.0    67    3.7   289     5.4   737.1    0.00 
 339   20:30   0.00   21.9    67    3.5   234     5.4   737.1    0.00 
 339   20:40   0.00   21.3    68    3.2   278     5.4   737.1    0.00 
 339   20:50   0.00   21.8    68    2.5   280     4.2   737.1    0.00 
 339   21:00   0.00   21.6    68    2.5   258     4.8   737.1    0.00 
 339   21:10   0.00   21.0    68    3.6   268     6.0   737.0    0.00 
 339   21:20   0.00   22.0    65    3.3   259     6.6   737.0    0.00 
 339   21:30   0.00   20.2    69    2.7     4     5.4   736.9    0.00 
 339   21:40   0.00   18.5    76    2.9   299     5.4   736.9    0.00 
 339   21:50   0.00   17.1    79    2.5   242     4.2   736.8    0.00 
 339   22:00   0.00   18.5    76    3.1   262     6.0   736.7    0.00 
 339   22:10   0.00   20.2    70    2.1   308     3.6   736.6    0.00 
 339   22:20   0.00   20.8    69    2.1   246     5.4   736.6    0.00 
 339   22:30   0.00   20.6    68    1.5   264     4.2   736.5    0.00 
 339   22:40   0.00   19.9    70    2.0   290     5.4   736.5    0.00 
 339   22:50   0.00   19.8    70    1.9   276     4.8   736.5    0.00 
 339   23:00   0.00   18.7    72    2.5    94     6.0   736.4    0.00 
 339   23:10   0.00   18.3    74    2.3   284     6.6   736.4    0.00 
 339   23:20   0.00   19.3    70    3.6   238     6.6   736.4    0.00 
 339   23:30   0.00   20.2    68    2.6   281     5.4   736.3    0.00 
 339   23:40   0.00   19.5    68    1.9    12     4.8   736.2    0.00 
 339   23:50   0.00   16.5    77    1.9   331     4.8   736.0    0.00 
 340    0:00   0.00   17.4    77    2.0   265     4.2   735.9    0.00 
 340    0:10   0.00   18.2    73    1.7   328     4.2   735.8    0.00 
 340    0:20   0.00   18.2    75    2.0   339     4.8   735.7    0.00 
 340    0:30   0.00   18.2    73    2.3   180     4.2   735.7    0.00 
 340    0:40   0.00   17.7    75    3.7   284     6.6   735.6    0.00 
 340    0:50   0.00   19.2    70    3.6   244     5.4   735.5    0.00 
 340    1:00   0.00   19.5    69    3.6   254     7.2   735.3    0.00 
 340    1:10   0.00   15.6    74    2.8    34     7.8   735.4    0.00 
 340    1:20   0.00   13.8    83    2.2    90     6.6   735.2    0.00 
 340    1:30   0.00   14.1    82    2.3   134     6.0   735.2    0.00 
 340    1:40   0.00   14.0    82    3.4   154     6.6   735.2    0.00 
 340    1:50   0.00   14.8    81    2.5   200     5.4   735.3    0.00 
 340    2:00   0.00   15.1    81    2.2   245     4.8   735.2    0.00 
 340    2:10   0.00   16.4    76    3.1   108     6.6   735.1    0.00 
 340    2:20   0.00   15.4    78    2.7   245     6.0   734.8    0.00 
 340    2:30   0.00   16.1    78    1.7   150     4.2   734.7    0.00 
 340    2:40   0.00   16.1    77    1.6   231     3.6   734.5    0.00 
 340    2:50   0.00   16.0    77    0.8   189     3.0   734.5    0.00 
 340    3:00   0.00   16.2    77    3.1   166     7.8   734.5    0.00 
 340    3:10   0.00   17.5    74    3.2   282     6.6   734.2    0.00 
 340    3:20   0.00   18.0    71    2.5    14     5.4   734.0    0.00 
 340    3:30   0.00   17.1    73    1.3   228     3.6   733.9    0.00 
 340    3:40   0.00   17.0    74    1.3   252     4.8   733.9    0.00 
 340    3:50   0.00   18.5    70    2.1   204     3.6   733.7    0.00 
 340    4:00   0.00   19.2    68    2.2   273     4.2   733.5    0.00 
 340    4:10   0.00   20.4    64    2.3   257     5.4   733.5    0.00 
 340    4:20   0.00   21.6    61    2.3   297     6.0   733.4    0.00 
 340    4:30   0.00   21.3    61    2.8    31     5.4   733.3    0.00 
 340    4:40   0.00   18.5    68    1.8    60     5.4   733.4    0.00 
 340    4:50   0.00   21.0    62    2.5    26     6.0   733.2    0.00 
 340    5:00   0.00   22.6    57    1.9    16     5.4   733.2    0.00 
 340    5:10   0.00   21.6    60    2.8   185     6.0   733.2    0.00 
 340    5:20   0.00   22.0    60    1.7    36     4.2   733.2    0.00 
 340    5:30   0.00   23.0    58    3.6   205    10.2   733.0    0.00 
 340    5:40   0.00   30.7    43    7.8   250    16.1   733.0    0.00 
 340    5:50   0.00   35.1    34    8.4   254    17.9   732.9    0.00 
 340    6:00   0.00   35.4    34    7.6   261    13.7   732.7    0.00 
 340    6:10   0.00   34.9    34    8.2   268    17.3   732.6    0.00 
 340    6:20   0.00   34.9    34    8.6   264    19.1   732.6    0.00 
 340    6:30   0.00   35.2    33    8.6   271    18.5   732.5    0.00 
 340    6:40   0.00   35.1    33   10.4   269    19.1   732.4    0.00 
 340    6:50   0.00   35.4    33    8.8   261    20.3   732.3    0.00 
 340    7:00   0.00   35.6    33    8.3   261    19.7   732.3    0.00 
 340    7:10   0.01   36.0    32    7.9   272    17.3   732.3    0.00 
 340    7:20   0.01   36.2    32    8.2   255    25.0   732.3    0.00 
 340    7:30   0.01   36.2    31    9.0   251    16.1   732.3    0.00 
 340    7:40   0.02   36.8    31    8.8   266    16.1   732.3    0.00 
 340    7:50   0.08   39.1    28    6.8   248    17.3   732.3    0.00 
 340    8:00   0.11   40.7    28    5.5   259    16.1   732.3    0.00 
 340    8:10   0.14   41.2    27    7.1   244    14.9   732.3    0.00 
 340    8:20   0.16   41.8    26    6.5   250    13.1   732.1    0.00 
 340    8:30   0.18   41.3    26    7.0   292    17.9   732.0    0.00 
 340    8:40   0.21   40.8    27    8.2   314    17.3   732.0    0.00 
 340    8:50   0.23   40.5    27    9.1   307    19.1   732.1    0.00 
 340    9:00   0.26   40.8    27    9.0   317    20.9   732.1    0.00 
 340    9:10   0.28   41.5    27    8.9   310    19.7   732.0    0.00 
 340    9:20   0.30   42.6    26    7.3   318    19.1   732.0    0.00 
 340    9:30   0.32   43.1    26    7.2   309    14.9   732.1    0.00 
 340    9:40   0.34   42.5    26   10.4   322    21.5   732.3    0.00 
 340    9:50   0.36   42.3    26    9.0   319    19.7   732.3    0.00 
 340   10:00   0.38   42.5    26    8.8   307    20.9   732.2    0.00 
 340   10:10   0.40   43.0    26   10.2   330    24.5   732.1    0.00 
 340   10:20   0.41   43.2    26    8.5   288    19.1   732.0    0.00 
 340   10:30   0.42   43.9    26    8.1   291    20.9   732.0    0.00 
 340   10:40   0.44   44.2    26    6.2   301    15.5   731.9    0.00 
 340   10:50   0.45   44.0    26    8.3   313    16.1   731.8    0.00 
 340   11:00   0.46   44.2    26    9.5   289    18.5   731.6    0.00 
 340   11:10   0.47   44.6    26    6.3   280    19.7   731.4    0.00 
 340   11:20   0.48   45.8    25    5.3   313    17.3   731.3    0.00 
 340   11:30   0.48   44.7    26    8.3   294    22.7   731.1    0.00 
 340   11:40   0.49   44.7    26    8.1   319    22.7   731.0    0.00 
 340   11:50   0.49   44.8    26    7.7   293    17.9   731.1    0.00 
 340   12:00   0.48   44.6    26    6.8   283    16.7   731.1    0.00 
 340   12:10   0.48   45.1    26    6.7   292    14.3   731.0    0.00 
 340   12:20   0.48   45.2    25    6.8   261    19.7   731.0    0.00 
 340   12:30   0.48   43.9    26    7.6   297    18.5   730.9    0.00 
 340   12:40   0.48   43.6    26    8.2   300    19.7   730.8    0.00 
 340   12:50   0.47   43.1    27    8.5   293    19.1   730.7    0.00 
 340   13:00   0.46   43.5    27    7.2   287    17.3   730.5    0.00 
 340   13:10   0.45   42.9    28    9.5   320    22.1   730.5    0.00 

Return to Headquarters, Valles Caldera graphs page.


Western Regional Climate Center,wrcc@dri.edu